Time;durP1;ratioP1;P1;durP2;ratioP2;P2;SDS_P1;SDS_P2;PMS_P1;PMS_P2;Temp;Humidity;BMP_temperature;BMP_pressure;BME280_temperature;BME280_humidity;BME280_pressure;Samples;Min_cycle;Max_cycle;Signal;HPM_P1;HPM_P2
2022/05/19 00:02:17;;;;;;;9.82;6.40;;;;;;;15.81;100.00;101803.31;5067314;28;20078;-28
2022/05/19 00:04:45;;;;;;;6.28;4.70;;;;;;;15.81;100.00;101796.88;5070716;28;20482;-28
2022/05/19 00:07:14;;;;;;;7.00;4.43;;;;;;;15.81;100.00;101791.22;5069245;28;20047;-28
2022/05/19 00:09:44;;;;;;;8.80;6.25;;;;;;;15.80;100.00;101801.66;5071277;28;20041;-29
2022/05/19 00:12:16;;;;;;;5.63;4.53;;;;;;;15.80;100.00;101789.56;5070325;28;20505;-28
2022/05/19 00:14:44;;;;;;;11.25;7.32;;;;;;;15.80;100.00;101795.19;5070251;28;20067;-30
2022/05/19 00:17:12;;;;;;;6.80;5.43;;;;;;;15.80;100.00;101789.56;5071178;28;20064;-28
2022/05/19 00:19:40;;;;;;;8.50;5.00;;;;;;;15.80;100.00;101787.59;5070439;28;20493;-29
2022/05/19 00:22:08;;;;;;;7.13;4.95;;;;;;;15.81;100.00;101788.41;5071166;28;20044;-31
2022/05/19 00:24:36;;;;;;;7.45;4.93;;;;;;;15.81;100.00;101785.59;5070917;28;20409;-29
2022/05/19 00:27:05;;;;;;;9.43;7.43;;;;;;;15.82;100.00;101776.00;5071041;28;20041;-28
2022/05/19 00:29:33;;;;;;;7.68;5.20;;;;;;;15.82;100.00;101776.84;5071505;28;20058;-28
2022/05/19 00:32:01;;;;;;;8.20;6.65;;;;;;;15.82;100.00;101782.47;5070478;28;20120;-28
2022/05/19 00:34:29;;;;;;;9.05;7.30;;;;;;;15.81;100.00;101768.72;5071026;28;20576;-29
2022/05/19 00:36:58;;;;;;;8.35;6.50;;;;;;;15.83;100.00;101760.81;5071111;28;20421;-33
2022/05/19 00:39:27;;;;;;;9.15;5.95;;;;;;;15.81;100.00;101755.47;5070068;28;20071;-28
2022/05/19 00:44:39;;;;;;;8.20;6.88;;;;;;;15.79;100.00;101766.22;5069199;28;20045;-29
2022/05/19 00:47:12;;;;;;;10.38;7.50;;;;;;;15.79;100.00;101757.78;5070247;28;20044;-28
2022/05/19 00:49:45;;;;;;;10.43;8.60;;;;;;;15.81;100.00;101755.47;5067866;28;20079;-34
2022/05/19 00:52:25;;;;;;;12.35;9.00;;;;;;;15.84;100.00;101762.47;5070839;28;20493;-31
2022/05/19 00:55:02;;;;;;;9.57;7.57;;;;;;;15.84;100.00;101756.84;5067718;28;20052;-29
2022/05/19 00:57:32;;;;;;;12.23;8.70;;;;;;;15.87;100.00;101739.34;5071014;28;20047;-30
2022/05/19 01:00:06;;;;;;;12.95;9.80;;;;;;;15.92;100.00;101742.03;5070097;28;20068;-28
2022/05/19 01:02:37;;;;;;;13.93;9.82;;;;;;;15.96;100.00;101747.88;5075123;28;20488;-30
2022/05/19 01:05:10;;;;;;;13.37;9.43;;;;;;;15.98;100.00;101731.53;5075096;28;20052;-28
2022/05/19 01:07:46;;;;;;;14.07;9.88;;;;;;;16.02;100.00;101732.53;5071213;28;20555;-29
2022/05/19 01:10:14;;;;;;;9.13;7.50;;;;;;;16.05;100.00;101740.34;5074462;28;20048;-28
2022/05/19 01:12:46;;;;;;;10.55;8.40;;;;;;;16.08;100.00;101734.09;5074843;28;20079;-28
2022/05/19 01:15:16;;;;;;;12.90;10.15;;;;;;;16.11;100.00;101733.47;5074196;28;20040;-28
2022/05/19 01:17:44;;;;;;;13.10;9.50;;;;;;;16.13;100.00;101731.19;5074997;28;20037;-29
2022/05/19 01:20:16;;;;;;;10.18;7.30;;;;;;;16.17;100.00;101727.41;5074434;28;20055;-28
2022/05/19 01:22:48;;;;;;;;;;;;;;;16.16;100.00;101728.56;5074335;28;20412;-32
2022/05/19 01:25:24;;;;;;;7.30;5.82;;;;;;;16.15;100.00;101721.28;5074439;28;19920;-31
2022/05/19 01:27:53;;;;;;;9.43;8.38;;;;;;;16.19;100.00;101715.81;5073792;28;20090;-33
2022/05/19 01:30:20;;;;;;;11.13;9.07;;;;;;;16.20;100.00;101711.84;5074574;28;20056;-36
2022/05/19 01:32:48;;;;;;;11.60;9.40;;;;;;;16.22;100.00;101719.97;5070993;28;20048;-33
2022/05/19 01:35:17;;;;;;;13.13;8.23;;;;;;;16.22;100.00;101711.53;5068257;28;20080;-32
2022/05/19 01:37:44;;;;;;;9.15;6.95;;;;;;;16.22;100.00;101712.38;5074029;28;20052;-31
2022/05/19 01:40:41;;;;;;;7.93;6.32;;;;;;;16.23;100.00;101707.56;5074335;28;20127;-31
2022/05/19 01:43:20;;;;;;;8.02;5.70;;;;;;;16.20;100.00;101711.84;5073894;28;20056;-28
2022/05/19 01:45:59;;;;;;;7.22;5.93;;;;;;;16.20;100.00;101701.41;5070441;28;20051;-31
2022/05/19 01:48:34;;;;;;;10.10;8.25;;;;;;;16.20;100.00;101698.59;5071938;28;20052;-33
2022/05/19 01:51:11;;;;;;;10.18;7.53;;;;;;;16.23;100.00;101694.31;5073478;28;20044;-31
2022/05/19 01:53:45;;;;;;;11.30;8.82;;;;;;;16.25;100.00;101702.47;5070940;28;20059;-34
2022/05/19 01:56:20;;;;;;;10.10;8.63;;;;;;;16.27;100.00;101700.16;5072894;28;20052;-29
2022/05/19 01:58:57;;;;;;;9.00;7.40;;;;;;;16.28;100.00;101704.66;5073786;28;20060;-28
2022/05/19 02:01:28;;;;;;;6.53;5.40;;;;;;;16.27;100.00;101703.81;5074038;28;20060;-26
2022/05/19 02:04:07;;;;;;;6.75;5.85;;;;;;;16.30;100.00;101702.34;5072927;28;20135;-32
2022/05/19 02:06:39;;;;;;;10.57;9.05;;;;;;;16.31;100.00;101692.75;5073650;28;20052;-28
2022/05/19 02:09:12;;;;;;;9.50;7.90;;;;;;;16.33;100.00;101682.00;5073636;28;20398;-33
2022/05/19 02:11:44;;;;;;;10.80;9.23;;;;;;;16.35;100.00;101671.25;5073157;28;20080;-32
2022/05/19 02:14:18;;;;;;;13.25;9.93;;;;;;;16.37;100.00;101680.22;5070440;28;20044;-28
2022/05/19 02:16:47;;;;;;;11.07;8.93;;;;;;;16.38;100.00;101671.44;5069430;28;20123;-28
2022/05/19 02:19:21;;;;;;;13.77;9.48;;;;;;;16.41;100.00;101670.78;5072680;28;20386;-28
2022/05/19 02:21:49;;;;;;;15.88;11.02;;;;;;;16.44;100.00;101674.94;5068392;28;20052;-30
2022/05/19 02:24:22;;;;;;;15.65;12.13;;;;;;;16.46;100.00;101673.50;5072579;28;20045;-29
2022/05/19 02:26:50;;;;;;;14.35;10.85;;;;;;;16.48;100.00;101670.34;5073617;28;20059;-29
2022/05/19 02:29:22;;;;;;;18.58;13.07;;;;;;;16.52;100.00;101666.59;5073347;28;20379;-29
2022/05/19 02:31:50;;;;;;;;;;;;;;;16.49;100.00;101667.22;5073034;28;20143;-29
2022/05/19 02:34:18;;;;;;;13.10;11.05;;;;;;;16.48;100.00;101659.09;5073625;28;19920;-28
2022/05/19 02:36:47;;;;;;;15.55;12.68;;;;;;;16.55;100.00;101656.66;5073384;28;20048;-28
2022/05/19 02:39:14;;;;;;;14.88;11.50;;;;;;;16.59;100.00;101654.84;5072412;28;20049;-30
2022/05/19 02:41:42;;;;;;;16.08;12.35;;;;;;;16.62;100.00;101654.22;5073116;28;20090;-29
2022/05/19 02:44:10;;;;;;;14.10;11.02;;;;;;;16.65;100.00;101653.59;5073114;28;20045;-27
2022/05/19 02:46:39;;;;;;;15.18;11.77;;;;;;;16.66;100.00;101649.63;5072664;28;20052;-28
2022/05/19 02:49:07;;;;;;;15.30;11.27;;;;;;;16.68;100.00;101652.97;5073191;28;20044;-28
2022/05/19 02:51:34;;;;;;;18.02;12.95;;;;;;;16.71;100.00;101651.50;5072954;28;20052;-27
2022/05/19 02:54:02;;;;;;;13.52;11.18;;;;;;;16.74;100.00;101646.06;5072000;28;20478;-29
2022/05/19 02:56:30;;;;;;;18.10;13.75;;;;;;;16.77;100.00;101645.41;5072851;28;20048;-28
2022/05/19 02:58:58;;;;;;;20.00;15.23;;;;;;;16.79;100.00;101637.44;5072600;28;20048;-28
2022/05/19 03:01:25;;;;;;;19.80;14.43;;;;;;;16.81;100.00;101617.38;5072305;28;20052;-34
2022/05/19 03:03:55;;;;;;;19.02;12.52;;;;;;;16.85;100.00;101621.22;5072782;28;20055;-34
2022/05/19 03:06:22;;;;;;;16.70;13.50;;;;;;;16.87;100.00;101607.66;5071995;28;20047;-33
2022/05/19 03:08:50;;;;;;;16.92;13.27;;;;;;;16.90;100.00;101617.44;5072727;28;20490;-31
2022/05/19 03:11:18;;;;;;;11.80;9.88;;;;;;;16.92;100.00;101629.25;5072508;28;20056;-28
2022/05/19 03:13:45;;;;;;;9.07;7.80;;;;;;;16.95;100.00;101648.34;5072274;28;20049;-29
2022/05/19 03:16:13;;;;;;;8.80;7.00;;;;;;;16.98;100.00;101654.16;5068883;28;20049;-29
2022/05/19 03:18:41;;;;;;;9.23;8.05;;;;;;;17.01;100.00;101683.69;5072796;28;20112;-31
2022/05/19 03:21:10;;;;;;;17.50;13.48;;;;;;;17.04;100.00;101683.88;5071144;28;20049;-28
2022/05/19 03:23:38;;;;;;;16.60;12.82;;;;;;;17.04;100.00;101689.50;5072309;28;20398;-28
2022/05/19 03:26:06;;;;;;;22.60;15.77;;;;;;;17.08;100.00;101696.19;5072123;28;20052;-29
2022/05/19 03:28:33;;;;;;;14.32;12.23;;;;;;;17.17;100.00;101704.69;5071292;28;20164;-31
2022/05/19 03:31:01;;;;;;;17.30;12.68;;;;;;;17.27;100.00;101710.03;5070686;28;20048;-28
2022/05/19 03:33:29;;;;;;;18.08;13.25;;;;;;;17.31;100.00;101713.91;5070240;28;20127;-28
2022/05/19 03:35:57;;;;;;;25.38;18.02;;;;;;;17.36;100.00;101727.88;5069482;28;20072;-29
2022/05/19 03:38:27;;;;;;;21.35;16.00;;;;;;;17.46;100.00;101752.13;5070100;28;20043;-28
2022/05/19 03:40:55;;;;;;;32.15;24.52;;;;;;;17.64;100.00;101736.13;5070300;28;20078;-28
2022/05/19 03:43:23;;;;;;;27.23;20.75;;;;;;;17.91;100.00;101730.28;5069867;28;20101;-29
2022/05/19 03:45:52;;;;;;;19.38;15.48;;;;;;;18.09;100.00;101729.16;5070361;28;20500;-28
2022/05/19 03:48:20;;;;;;;26.88;21.17;;;;;;;18.22;100.00;101735.81;5071723;28;20063;-28
2022/05/19 03:50:49;;;;;;;30.15;23.08;;;;;;;18.32;100.00;101748.81;5071007;28;20052;-29
2022/05/19 03:53:17;;;;;;;28.00;21.10;;;;;;;18.36;100.00;101759.13;5071516;28;20044;-28
2022/05/19 03:55:46;;;;;;;31.73;21.73;;;;;;;18.38;100.00;101770.94;5070765;28;20047;-28
2022/05/19 03:58:14;;;;;;;27.58;19.90;;;;;;;18.39;100.00;101774.56;5071871;28;20040;-28
2022/05/19 04:00:42;;;;;;;28.60;20.30;;;;;;;18.38;100.00;101819.00;5071642;28;20394;-27
2022/05/19 04:03:10;;;;;;;28.27;21.00;;;;;;;18.37;100.00;101802.34;5070718;28;20442;-28
2022/05/19 04:05:38;;;;;;;28.15;20.90;;;;;;;18.34;100.00;101834.94;5071480;28;20080;-28
2022/05/19 04:08:06;;;;;;;31.25;23.08;;;;;;;18.24;100.00;101850.19;5071476;28;20048;-29
2022/05/19 04:10:34;;;;;;;29.00;19.88;;;;;;;18.11;100.00;101853.97;5070871;28;20056;-30
2022/05/19 04:13:03;;;;;;;22.80;15.32;;;;;;;17.99;100.00;101839.59;5071769;28;20387;-28
2022/05/19 04:15:31;;;;;;;20.60;14.80;;;;;;;17.87;100.00;101845.03;5071065;28;20049;-29
2022/05/19 04:17:58;;;;;;;16.63;11.85;;;;;;;17.76;100.00;101838.00;5070456;28;20094;-29
2022/05/19 04:20:29;;;;;;;16.05;11.75;;;;;;;17.69;100.00;101829.16;5071445;28;20048;-30
2022/05/19 04:22:57;;;;;;;17.38;13.35;;;;;;;17.66;100.00;101830.63;5071284;28;20489;-29
2022/05/19 04:25:25;;;;;;;15.60;11.73;;;;;;;17.65;100.00;101839.44;5070237;28;20041;-29
2022/05/19 04:27:53;;;;;;;13.52;10.15;;;;;;;17.63;100.00;101836.91;5071089;28;20045;-28
2022/05/19 04:30:22;;;;;;;14.82;11.48;;;;;;;17.62;100.00;101823.09;5071132;28;20108;-28
2022/05/19 04:32:54;;;;;;;12.07;10.07;;;;;;;17.60;100.00;101825.41;5069791;28;20507;-28
2022/05/19 04:35:22;;;;;;;16.75;13.75;;;;;;;17.58;100.00;101823.75;5071185;28;20131;-28
2022/05/19 04:37:50;;;;;;;12.50;10.88;;;;;;;17.58;100.00;101827.75;5070693;28;20382;-29
2022/05/19 04:40:19;;;;;;;10.32;8.02;;;;;;;17.58;100.00;101839.88;5071048;28;20111;-28
2022/05/19 04:42:47;;;;;;;11.27;10.00;;;;;;;17.58;100.00;101833.41;5059780;28;20046;-28
2022/05/19 04:45:17;;;;;;;12.80;11.40;;;;;;;17.57;100.00;101832.56;5069870;28;20106;-29
2022/05/19 04:47:47;;;;;;;10.52;8.40;;;;;;;17.55;100.00;101826.41;5071128;28;20048;-30
2022/05/19 04:50:16;;;;;;;13.82;11.45;;;;;;;17.54;100.00;101822.75;5070957;28;20062;-30
2022/05/19 04:52:45;;;;;;;14.32;12.50;;;;;;;17.52;100.00;101836.34;5070257;28;20061;-31
2022/05/19 04:55:13;;;;;;;17.40;13.85;;;;;;;17.46;100.00;101836.78;5071038;28;20040;-29
2022/05/19 04:57:43;;;;;;;14.48;12.45;;;;;;;17.44;100.00;101819.34;5070812;28;20139;-29
2022/05/19 05:00:13;;;;;;;17.15;13.35;;;;;;;17.41;100.00;101818.00;5070243;28;20044;-36
2022/05/19 05:02:41;;;;;;;13.25;11.52;;;;;;;17.40;100.00;101830.44;5070110;28;20055;-33
2022/05/19 05:05:12;;;;;;;19.27;15.02;;;;;;;17.38;100.00;101821.50;5070564;28;20532;-35
2022/05/19 05:07:40;;;;;;;20.42;14.48;;;;;;;17.36;100.00;101818.16;5070309;28;20044;-31
2022/05/19 05:10:08;;;;;;;17.50;14.10;;;;;;;17.34;100.00;101805.53;5071422;28;20053;-29
2022/05/19 05:12:36;;;;;;;17.85;13.32;;;;;;;17.33;100.00;101801.88;5070868;28;20049;-35
2022/05/19 05:15:05;;;;;;;17.63;13.00;;;;;;;17.33;100.00;101803.84;5068151;28;20052;-28
2022/05/19 05:17:32;;;;;;;12.95;10.40;;;;;;;17.32;100.00;101783.28;5068193;28;20143;-33
2022/05/19 05:20:00;;;;;;;17.10;13.32;;;;;;;17.31;100.00;101761.84;5068876;28;20053;-36
2022/05/19 05:22:30;;;;;;;14.40;12.23;;;;;;;17.30;100.00;101748.91;5068531;28;20064;-32
2022/05/19 05:24:58;;;;;;;17.60;12.88;;;;;;;17.30;100.00;101751.72;5067202;28;20040;-36
2022/05/19 05:27:26;;;;;;;14.63;11.85;;;;;;;17.31;100.00;101742.09;5068775;28;20479;-32
2022/05/19 05:29:54;;;;;;;13.88;11.30;;;;;;;17.34;100.00;101727.34;5069751;28;20143;-35
2022/05/19 05:32:22;;;;;;;12.65;10.32;;;;;;;17.37;100.00;101717.41;5069530;28;20041;-32
2022/05/19 05:34:50;;;;;;;16.25;11.82;;;;;;;17.38;100.00;101708.63;5068743;28;20051;-31
2022/05/19 05:37:17;;;;;;;14.65;10.65;;;;;;;17.39;100.00;101701.81;5069597;28;20417;-33
2022/05/19 05:39:46;;;;;;;14.25;11.73;;;;;;;17.40;100.00;101699.81;5069562;28;20164;-34
2022/05/19 05:42:14;;;;;;;13.10;9.43;;;;;;;17.38;100.00;101700.16;5069104;28;20204;-29
2022/05/19 05:44:42;;;;;;;10.35;8.30;;;;;;;17.41;100.00;101682.56;5071449;28;20128;-34
2022/05/19 05:47:10;;;;;;;11.82;9.93;;;;;;;17.44;100.00;101686.72;5074161;28;20044;-32
2022/05/19 05:49:38;;;;;;;13.25;11.57;;;;;;;17.49;100.00;101690.25;5070122;28;20387;-30
2022/05/19 05:52:07;;;;;;;20.13;15.85;;;;;;;17.51;100.00;101673.81;5074161;28;20040;-31
2022/05/19 05:54:35;;;;;;;21.60;17.38;;;;;;;17.51;100.00;101667.34;5074013;28;20051;-34
2022/05/19 05:57:05;;;;;;;19.42;15.95;;;;;;;17.49;100.00;101664.00;5073254;28;20044;-31
2022/05/19 05:59:32;;;;;;;13.25;10.13;;;;;;;17.51;100.00;101693.56;5074037;28;20402;-32
2022/05/19 06:02:00;;;;;;;12.75;10.18;;;;;;;17.55;100.00;101693.75;5074208;28;20045;-31
2022/05/19 06:04:28;;;;;;;11.73;10.35;;;;;;;17.61;100.00;101686.78;5073461;28;20387;-31
2022/05/19 06:06:56;;;;;;;18.13;13.63;;;;;;;17.66;100.00;101675.38;5070668;28;20501;-34
2022/05/19 06:09:24;;;;;;;14.02;11.27;;;;;;;17.70;100.00;101670.75;5067913;28;20171;-31
2022/05/19 06:11:52;;;;;;;10.65;9.55;;;;;;;17.77;100.00;101690.03;5073956;28;20473;-31
2022/05/19 06:14:22;;;;;;;14.18;11.13;;;;;;;17.83;100.00;101695.19;5073464;28;20040;-31
2022/05/19 06:16:49;;;;;;;9.02;8.02;;;;;;;17.92;100.00;101697.22;5072782;28;20489;-34
2022/05/19 06:19:18;;;;;;;11.63;9.68;;;;;;;18.01;100.00;101690.41;5073643;28;20055;-32
2022/05/19 06:21:46;;;;;;;17.33;13.95;;;;;;;18.08;100.00;101690.78;5073739;28;20044;-25
2022/05/19 06:24:15;;;;;;;16.10;12.80;;;;;;;18.11;100.00;101694.94;5072798;28;20063;-36
2022/05/19 06:26:43;;;;;;;13.60;11.38;;;;;;;18.14;100.00;101699.94;5073412;28;20086;-28
2022/05/19 06:29:12;;;;;;;13.95;11.88;;;;;;;18.17;100.00;101711.41;5072176;28;20068;-29
2022/05/19 06:31:41;;;;;;;18.95;13.43;;;;;;;18.22;100.00;101722.53;5072481;28;20044;-28
2022/05/19 06:34:10;;;;;;;15.27;12.32;;;;;;;18.24;100.00;101720.19;5073508;28;20036;-28
2022/05/19 06:36:43;;;;;;;13.15;11.70;;;;;;;18.23;100.00;101727.00;5063439;28;20056;-28
2022/05/19 06:39:11;;;;;;;14.43;11.98;;;;;;;18.25;100.00;101727.53;5072609;28;20053;-27
2022/05/19 06:44:24;;;;;;;15.85;14.15;;;;;;;18.20;100.00;101730.50;5062959;28;20139;-28
2022/05/19 06:46:53;;;;;;;16.80;13.57;;;;;;;18.19;100.00;101737.31;5073243;28;20059;-29
2022/05/19 06:49:21;;;;;;;21.08;15.32;;;;;;;18.21;100.00;101729.34;5073202;28;20440;-29
2022/05/19 06:51:49;;;;;;;16.75;13.05;;;;;;;18.23;100.00;101727.00;5072254;28;20056;-31
2022/05/19 06:54:19;;;;;;;17.15;13.68;;;;;;;18.25;100.00;101726.69;5072656;28;20494;-31
2022/05/19 06:56:45;;;;;;;12.52;10.80;;;;;;;18.27;100.00;101727.19;5072291;28;20098;-27
2022/05/19 06:59:15;;;;;;;15.70;12.98;;;;;;;18.28;100.00;101717.56;5072386;28;20102;-32
2022/05/19 07:01:44;;;;;;;12.98;9.75;;;;;;;18.32;100.00;101723.38;5072846;28;20099;-34
2022/05/19 07:04:14;;;;;;;12.82;11.07;;;;;;;18.35;100.00;101729.22;5072694;28;20037;-33
2022/05/19 07:06:43;;;;;;;12.02;10.30;;;;;;;18.37;100.00;101731.72;5072008;28;20048;-31
2022/05/19 07:09:11;;;;;;;10.35;8.38;;;;;;;18.41;100.00;101738.34;5072683;28;20048;-32
2022/05/19 07:11:38;;;;;;;8.45;7.55;;;;;;;18.46;100.00;101749.50;5072787;28;20048;-33
2022/05/19 07:14:08;;;;;;;7.95;6.80;;;;;;;18.50;100.00;101747.66;5071861;28;20417;-29
2022/05/19 07:16:36;;;;;;;8.00;6.07;;;;;;;18.53;100.00;101758.31;5072579;28;20048;-28
2022/05/19 07:21:50;;;;;;;10.65;8.80;;;;;;;18.56;100.00;101802.91;5072487;28;20044;-32
2022/05/19 07:24:20;;;;;;;17.85;13.25;;;;;;;18.54;100.00;101816.53;5072189;28;20129;-34
2022/05/19 07:26:52;;;;;;;13.90;11.45;;;;;;;18.47;100.00;101831.13;5071637;28;20048;-29
2022/05/19 07:29:22;;;;;;;15.05;13.07;;;;;;;18.42;100.00;101836.09;5072582;28;20045;-29
2022/05/19 07:31:50;;;;;;;18.50;13.10;;;;;;;18.37;100.00;101844.75;5072075;28;20052;-28
2022/05/19 07:34:21;;;;;;;17.40;12.73;;;;;;;18.33;100.00;101836.09;5071477;28;20047;-27
2022/05/19 07:36:51;;;;;;;8.07;6.32;;;;;;;18.27;100.00;101843.03;5072313;28;20070;-35
2022/05/19 07:39:18;;;;;;;8.98;7.88;;;;;;;18.26;100.00;101841.38;5072118;28;20059;-32
2022/05/19 07:41:55;;;;;;;7.63;6.63;;;;;;;18.25;100.00;101837.72;5071459;28;20123;-26
2022/05/19 07:44:23;;;;;;;5.88;5.10;;;;;;;18.25;100.00;101831.22;5071827;28;20036;-33
2022/05/19 07:46:51;;;;;;;10.77;6.97;;;;;;;18.28;100.00;101832.56;5072152;28;20055;-25
2022/05/19 07:49:19;;;;;;;25.13;11.68;;;;;;;18.29;100.00;101820.94;5071198;28;20048;-30
2022/05/19 07:51:47;;;;;;;16.15;9.52;;;;;;;18.30;100.00;101814.13;5071841;28;20040;-28
2022/05/19 07:54:20;;;;;;;16.90;11.48;;;;;;;18.29;100.00;101804.00;5071707;28;20048;-28
2022/05/19 07:56:48;;;;;;;18.95;13.68;;;;;;;18.26;100.00;101793.34;5070985;28;20048;-29
2022/05/19 07:59:16;;;;;;;18.30;14.75;;;;;;;18.20;100.00;101781.34;5071762;28;20036;-34
2022/05/19 08:01:45;;;;;;;16.23;11.07;;;;;;;18.20;100.00;101760.75;5071026;28;20045;-27
2022/05/19 08:04:19;;;;;;;11.65;8.23;;;;;;;18.21;100.00;101734.16;5071391;28;20049;-27
2022/05/19 08:06:47;;;;;;;11.48;7.95;;;;;;;18.29;100.00;101721.22;5071505;28;20135;-27
2022/05/19 08:12:03;;;;;;;14.27;10.85;;;;;;;18.47;100.00;101703.94;5070691;28;20094;-26
2022/05/19 08:17:33;;;;;;;11.45;8.68;;;;;;;18.72;100.00;101693.81;5061267;28;20048;-28
2022/05/19 08:20:01;;;;;;;13.80;11.50;;;;;;;18.89;100.00;101699.44;5071379;28;20068;-27
2022/05/19 08:22:28;;;;;;;17.25;13.15;;;;;;;19.04;100.00;101706.56;5071287;28;20478;-27
2022/05/19 08:24:57;;;;;;;17.50;12.27;;;;;;;19.16;100.00;101708.72;5070684;28;20055;-27
2022/05/19 08:27:25;;;;;;;14.60;9.85;;;;;;;19.35;100.00;101705.50;5071459;28;20052;-27
2022/05/19 08:29:53;;;;;;;12.80;9.82;;;;;;;19.52;100.00;101694.97;5070480;28;20049;-27
2022/05/19 08:32:21;;;;;;;19.67;14.50;;;;;;;19.69;100.00;101696.91;5071223;28;20494;-31
2022/05/19 08:34:49;;;;;;;14.18;10.77;;;;;;;19.76;100.00;101687.88;5071335;28;20059;-35
2022/05/19 08:37:20;;;;;;;10.52;8.73;;;;;;;19.86;100.00;101693.97;5070665;28;20082;-28
2022/05/19 08:39:49;;;;;;;15.55;11.40;;;;;;;19.97;100.00;101666.09;5071244;28;20057;-28
2022/05/19 08:42:20;;;;;;;14.77;12.60;;;;;;;20.13;100.00;101657.81;5071050;28;20080;-35
2022/05/19 08:44:51;;;;;;;10.30;8.70;;;;;;;20.27;100.00;101619.50;5070266;28;20059;-28
2022/05/19 08:47:24;;;;;;;18.27;12.10;;;;;;;20.41;100.00;101595.72;5067897;28;20048;-28
2022/05/19 08:49:57;;;;;;;13.98;9.80;;;;;;;20.54;100.00;101595.44;5071515;28;20067;-28
2022/05/19 08:52:28;;;;;;;11.85;9.05;;;;;;;20.74;100.00;101605.06;5066980;28;20083;-35
2022/05/19 08:54:58;;;;;;;10.68;8.75;;;;;;;20.90;100.00;101610.91;5065937;28;20046;-33
2022/05/19 08:57:31;;;;;;;11.60;9.25;;;;;;;20.96;100.00;101610.34;5070982;28;20052;-35
2022/05/19 09:00:05;;;;;;;8.98;7.97;;;;;;;20.92;100.00;101614.22;5070475;28;20048;-37
2022/05/19 09:02:41;;;;;;;8.13;6.22;;;;;;;20.88;100.00;101621.78;5071267;28;20132;-28
2022/05/19 09:05:19;;;;;;;7.85;6.18;;;;;;;20.99;100.00;101634.31;5070108;28;20131;-32
2022/05/19 09:08:00;;;;;;;8.95;7.25;;;;;;;21.17;100.00;101640.66;5070907;28;20143;-35
2022/05/19 09:10:41;;;;;;;8.25;6.05;;;;;;;21.44;100.00;101639.16;5066178;28;20072;-28
2022/05/19 09:13:19;;;;;;;10.75;7.32;;;;;;;21.74;100.00;101649.13;5066985;28;20417;-31
2022/05/19 09:15:48;;;;;;;8.25;6.75;;;;;;;22.06;100.00;101643.66;5067174;28;20057;-28
2022/05/19 09:18:21;;;;;;;9.80;7.38;;;;;;;22.65;100.00;101638.94;5067317;28;20052;-28
2022/05/19 09:20:53;;;;;;;7.88;6.50;;;;;;;23.18;100.00;101650.22;5068180;28;20056;-29
2022/05/19 09:23:21;;;;;;;8.43;6.50;;;;;;;23.83;100.00;101630.72;5074709;28;20048;-28
2022/05/19 09:25:54;;;;;;;6.80;5.65;;;;;;;24.20;100.00;101623.41;5074565;28;20048;-33
2022/05/19 09:28:23;;;;;;;7.68;6.70;;;;;;;24.45;100.00;101626.84;5073715;28;20493;-28
2022/05/19 09:30:54;;;;;;;6.68;5.40;;;;;;;24.72;100.00;101617.22;5074574;28;20068;-33
2022/05/19 09:33:29;;;;;;;6.97;5.38;;;;;;;25.10;100.00;101626.13;5073844;28;20048;-32
2022/05/19 09:36:00;;;;;;;9.23;6.32;;;;;;;25.46;100.00;101634.13;5074478;28;20055;-33
2022/05/19 09:38:33;;;;;;;8.00;6.15;;;;;;;25.53;100.00;101644.88;5074432;28;20048;-35
2022/05/19 09:41:03;;;;;;;8.38;7.10;;;;;;;25.34;100.00;101648.63;5073539;28;20048;-29
2022/05/19 09:43:38;;;;;;;7.75;6.95;;;;;;;25.14;100.00;101636.44;5074492;28;20045;-33
2022/05/19 09:46:11;;;;;;;8.48;7.13;;;;;;;24.90;100.00;101643.28;5074409;28;20405;-28
2022/05/19 09:48:43;;;;;;;7.80;6.70;;;;;;;24.68;100.00;101644.88;5073719;28;20044;-33
2022/05/19 09:51:14;;;;;;;8.05;6.28;;;;;;;24.53;100.00;101642.09;5074290;28;20048;-31
2022/05/19 09:53:49;;;;;;;8.13;6.40;;;;;;;24.41;100.00;101633.69;5074084;28;20041;-31
2022/05/19 09:56:20;;;;;;;7.03;6.32;;;;;;;24.45;100.00;101635.41;5073410;28;20143;-28
2022/05/19 09:58:53;;;;;;;6.75;5.97;;;;;;;24.56;100.00;101645.03;5074064;28;20048;-28
2022/05/19 10:01:28;;;;;;;7.82;7.03;;;;;;;24.56;99.18;101647.06;5073308;28;20052;-31
2022/05/19 10:03:58;;;;;;;8.07;7.25;;;;;;;24.50;97.19;101657.94;5073806;28;20051;-29
2022/05/19 10:06:36;;;;;;;7.20;6.43;;;;;;;24.52;95.83;101664.09;5074228;28;20087;-29
2022/05/19 10:09:09;;;;;;;7.47;6.10;;;;;;;24.67;96.27;101662.38;5073297;28;20421;-31
2022/05/19 10:11:48;;;;;;;6.70;6.00;;;;;;;24.77;94.41;101650.38;5073698;28;20648;-30
2022/05/19 10:14:20;;;;;;;7.82;6.95;;;;;;;24.71;93.19;101654.72;5073605;28;20508;-32
2022/05/19 10:16:57;;;;;;;9.60;8.35;;;;;;;24.53;92.72;101659.22;5073216;28;20131;-33
2022/05/19 10:19:37;;;;;;;8.35;7.53;;;;;;;24.44;94.29;101644.34;5073640;28;20052;-35
2022/05/19 10:22:30;;;;;;;7.93;6.50;;;;;;;24.30;92.98;101656.28;5073695;28;20405;-37
2022/05/19 10:25:29;;;;;;;9.50;7.55;;;;;;;24.11;94.84;101657.03;5045946;28;20071;-31
2022/05/19 10:31:12;;;;;;;9.63;8.40;;;;;;;23.79;99.20;101681.91;5070058;28;20076;-26
2022/05/19 10:33:50;;;;;;;;;;;;;;;23.58;98.23;101699.31;5073662;28;20486;-34
2022/05/19 10:36:24;;;;;;;7.53;6.13;;;;;;;23.37;100.00;101704.44;5073304;28;19920;-35
2022/05/19 10:39:09;;;;;;;5.00;4.50;;;;;;;23.21;100.00;101714.94;5073167;28;20135;-37
2022/05/19 10:41:49;;;;;;;7.45;6.35;;;;;;;23.14;100.00;101731.88;5073187;28;20052;-30
2022/05/19 10:44:35;;;;;;;10.55;8.45;;;;;;;23.09;100.00;101777.66;5071574;28;20575;-29
2022/05/19 10:47:13;;;;;;;10.85;6.97;;;;;;;22.87;100.00;101791.28;5071145;28;20048;-33
2022/05/19 10:50:14;;;;;;;9.30;7.88;;;;;;;22.42;100.00;101799.97;5070334;28;20055;-32
2022/05/19 10:52:56;;;;;;;11.13;8.15;;;;;;;21.85;100.00;101805.75;5063145;28;20055;-28
2022/05/19 10:55:32;;;;;;;14.20;8.18;;;;;;;21.46;100.00;101796.66;5063434;28;20127;-28
2022/05/19 10:58:14;;;;;;;16.13;7.57;;;;;;;21.12;100.00;101802.66;5072226;28;20109;-29
2022/05/19 11:00:49;;;;;;;;;;;;;;;20.73;100.00;101804.00;5073362;28;20131;-30
2022/05/19 11:03:46;;;;;;;28.63;7.47;;;;;;;20.50;100.00;101823.31;5072960;28;20389;-35
2022/05/19 11:06:30;;;;;;;29.08;6.88;;;;;;;20.22;100.00;101823.78;5072046;28;20143;-36
2022/05/19 11:09:08;;;;;;;22.77;5.50;;;;;;;19.97;100.00;101829.59;5072843;28;20055;-31
2022/05/19 11:11:49;;;;;;;31.05;7.90;;;;;;;19.67;100.00;101840.00;5072271;28;20075;-36
2022/05/19 11:14:43;;;;;;;31.02;6.57;;;;;;;19.44;100.00;101854.31;5072740;28;20048;-30
2022/05/19 11:17:21;;;;;;;23.15;6.25;;;;;;;19.21;100.00;101858.50;5072488;28;20063;-34
2022/05/19 11:19:55;;;;;;;41.38;8.88;;;;;;;19.10;100.00;101857.19;5072046;28;20060;-30
2022/05/19 11:22:28;;;;;;;27.08;6.32;;;;;;;18.95;100.00;101843.53;5072595;28;20052;-28
2022/05/19 11:27:50;;;;;;;19.30;4.72;;;;;;;18.76;100.00;101864.50;5069945;28;20114;-28
2022/05/19 11:30:21;;;;;;;18.83;4.60;;;;;;;18.72;100.00;101871.97;5072365;28;20040;-32
2022/05/19 11:32:53;;;;;;;27.88;6.00;;;;;;;18.59;100.00;101870.09;5068526;28;20059;-28
2022/05/19 11:35:26;;;;;;;16.27;4.88;;;;;;;18.51;100.00;101851.09;5072286;28;20440;-30
2022/05/19 11:37:59;;;;;;;16.98;4.95;;;;;;;18.50;100.00;101855.91;5072194;28;20041;-30
2022/05/19 11:40:38;;;;;;;17.58;4.63;;;;;;;18.52;100.00;101861.25;5066596;28;20048;-29
2022/05/19 11:43:12;;;;;;;27.17;6.90;;;;;;;18.53;100.00;101860.91;5071860;28;20048;-35
2022/05/19 11:45:47;;;;;;;8.68;3.58;;;;;;;18.56;100.00;101865.09;5067424;28;20109;-28
2022/05/19 11:57:01;;;;;;;23.55;7.55;;;;;;;18.86;100.00;101858.50;5069533;28;20045;-33